sensor_id;sensor_type;location;lat;lon;timestamp;P1;durP1;ratioP1;P2;durP2;ratioP2
53977;SDS011;39886;47.984;-1.586;2023-03-14T00:01:31;3.60;;;1.60;;
53977;SDS011;39886;47.984;-1.586;2023-03-14T00:03:57;3.83;;;1.48;;
53977;SDS011;39886;47.984;-1.586;2023-03-14T00:06:24;2.90;;;1.30;;
53977;SDS011;39886;47.984;-1.586;2023-03-14T00:08:50;2.92;;;1.30;;
53977;SDS011;39886;47.984;-1.586;2023-03-14T00:11:18;3.90;;;1.40;;
53977;SDS011;39886;47.984;-1.586;2023-03-14T00:13:48;2.75;;;1.40;;
53977;SDS011;39886;47.984;-1.586;2023-03-14T00:16:14;4.55;;;1.75;;
53977;SDS011;39886;47.984;-1.586;2023-03-14T00:18:40;4.22;;;1.67;;
53977;SDS011;39886;47.984;-1.586;2023-03-14T00:21:07;4.45;;;1.30;;
53977;SDS011;39886;47.984;-1.586;2023-03-14T00:23:34;2.83;;;1.33;;
53977;SDS011;39886;47.984;-1.586;2023-03-14T00:26:03;2.55;;;1.20;;
53977;SDS011;39886;47.984;-1.586;2023-03-14T00:28:30;4.55;;;1.40;;
53977;SDS011;39886;47.984;-1.586;2023-03-14T00:30:56;3.58;;;1.55;;
53977;SDS011;39886;47.984;-1.586;2023-03-14T00:33:22;4.22;;;1.67;;
53977;SDS011;39886;47.984;-1.586;2023-03-14T00:35:52;2.40;;;1.27;;
53977;SDS011;39886;47.984;-1.586;2023-03-14T00:38:19;3.75;;;1.40;;
53977;SDS011;39886;47.984;-1.586;2023-03-14T00:40:45;2.83;;;1.40;;
53977;SDS011;39886;47.984;-1.586;2023-03-14T00:43:11;2.92;;;1.33;;
53977;SDS011;39886;47.984;-1.586;2023-03-14T00:45:36;2.38;;;1.40;;
53977;SDS011;39886;47.984;-1.586;2023-03-14T00:48:02;2.72;;;1.30;;
53977;SDS011;39886;47.984;-1.586;2023-03-14T00:50:28;2.50;;;1.30;;
53977;SDS011;39886;47.984;-1.586;2023-03-14T00:52:54;3.97;;;1.23;;
53977;SDS011;39886;47.984;-1.586;2023-03-14T00:55:19;3.58;;;1.35;;
53977;SDS011;39886;47.984;-1.586;2023-03-14T00:57:45;3.08;;;1.20;;
53977;SDS011;39886;47.984;-1.586;2023-03-14T01:00:11;2.83;;;1.27;;
53977;SDS011;39886;47.984;-1.586;2023-03-14T01:02:37;3.03;;;1.40;;
53977;SDS011;39886;47.984;-1.586;2023-03-14T01:05:03;2.08;;;1.23;;
53977;SDS011;39886;47.984;-1.586;2023-03-14T01:07:30;2.53;;;1.05;;
53977;SDS011;39886;47.984;-1.586;2023-03-14T01:09:55;2.53;;;1.30;;
53977;SDS011;39886;47.984;-1.586;2023-03-14T01:12:21;2.67;;;1.10;;
53977;SDS011;39886;47.984;-1.586;2023-03-14T01:14:47;2.25;;;1.08;;
53977;SDS011;39886;47.984;-1.586;2023-03-14T01:17:12;3.08;;;1.33;;
53977;SDS011;39886;47.984;-1.586;2023-03-14T01:19:38;2.33;;;1.17;;
53977;SDS011;39886;47.984;-1.586;2023-03-14T01:22:04;2.10;;;1.00;;
53977;SDS011;39886;47.984;-1.586;2023-03-14T01:24:30;1.75;;;1.08;;
53977;SDS011;39886;47.984;-1.586;2023-03-14T01:26:56;1.45;;;1.10;;
53977;SDS011;39886;47.984;-1.586;2023-03-14T01:29:21;2.92;;;1.40;;
53977;SDS011;39886;47.984;-1.586;2023-03-14T01:31:47;3.63;;;1.27;;
53977;SDS011;39886;47.984;-1.586;2023-03-14T01:34:13;2.47;;;1.20;;
53977;SDS011;39886;47.984;-1.586;2023-03-14T01:36:39;3.17;;;1.10;;
53977;SDS011;39886;47.984;-1.586;2023-03-14T01:39:04;3.38;;;1.42;;
53977;SDS011;39886;47.984;-1.586;2023-03-14T01:41:31;2.60;;;1.23;;
53977;SDS011;39886;47.984;-1.586;2023-03-14T01:43:57;2.63;;;1.30;;
53977;SDS011;39886;47.984;-1.586;2023-03-14T01:49:07;2.10;;;1.00;;
53977;SDS011;39886;47.984;-1.586;2023-03-14T01:54:34;2.22;;;1.10;;
53977;SDS011;39886;47.984;-1.586;2023-03-14T01:59:51;2.75;;;1.23;;
53977;SDS011;39886;47.984;-1.586;2023-03-14T02:02:20;1.85;;;1.08;;
53977;SDS011;39886;47.984;-1.586;2023-03-14T02:04:48;4.30;;;1.40;;
53977;SDS011;39886;47.984;-1.586;2023-03-14T02:07:29;2.20;;;1.30;;
53977;SDS011;39886;47.984;-1.586;2023-03-14T02:10:00;2.13;;;1.33;;
53977;SDS011;39886;47.984;-1.586;2023-03-14T02:12:28;2.60;;;1.05;;
53977;SDS011;39886;47.984;-1.586;2023-03-14T02:14:54;2.05;;;1.02;;
53977;SDS011;39886;47.984;-1.586;2023-03-14T02:17:20;1.65;;;1.20;;
53977;SDS011;39886;47.984;-1.586;2023-03-14T02:20:03;2.08;;;1.10;;
53977;SDS011;39886;47.984;-1.586;2023-03-14T02:27:58;2.58;;;1.02;;
53977;SDS011;39886;47.984;-1.586;2023-03-14T02:30:26;2.05;;;0.95;;
53977;SDS011;39886;47.984;-1.586;2023-03-14T02:32:55;2.17;;;1.40;;
53977;SDS011;39886;47.984;-1.586;2023-03-14T02:35:29;2.35;;;1.20;;
53977;SDS011;39886;47.984;-1.586;2023-03-14T02:38:11;1.92;;;1.17;;
53977;SDS011;39886;47.984;-1.586;2023-03-14T02:40:56;2.22;;;1.02;;
53977;SDS011;39886;47.984;-1.586;2023-03-14T02:43:22;2.58;;;0.95;;
53977;SDS011;39886;47.984;-1.586;2023-03-14T02:45:48;2.45;;;1.20;;
53977;SDS011;39886;47.984;-1.586;2023-03-14T02:48:23;2.20;;;1.23;;
53977;SDS011;39886;47.984;-1.586;2023-03-14T02:50:56;2.78;;;1.30;;
53977;SDS011;39886;47.984;-1.586;2023-03-14T02:53:28;1.75;;;1.08;;
53977;SDS011;39886;47.984;-1.586;2023-03-14T02:55:56;2.35;;;1.20;;
53977;SDS011;39886;47.984;-1.586;2023-03-14T02:58:22;3.00;;;1.27;;
53977;SDS011;39886;47.984;-1.586;2023-03-14T03:00:48;1.95;;;1.10;;
53977;SDS011;39886;47.984;-1.586;2023-03-14T03:03:14;2.15;;;0.93;;
53977;SDS011;39886;47.984;-1.586;2023-03-14T03:05:40;2.38;;;1.10;;
53977;SDS011;39886;47.984;-1.586;2023-03-14T03:08:07;1.80;;;1.00;;
53977;SDS011;39886;47.984;-1.586;2023-03-14T03:10:34;2.13;;;1.17;;
53977;SDS011;39886;47.984;-1.586;2023-03-14T03:12:59;2.05;;;1.13;;
53977;SDS011;39886;47.984;-1.586;2023-03-14T03:15:26;2.42;;;1.10;;
53977;SDS011;39886;47.984;-1.586;2023-03-14T03:17:52;2.15;;;1.10;;
53977;SDS011;39886;47.984;-1.586;2023-03-14T03:20:18;3.22;;;1.00;;
53977;SDS011;39886;47.984;-1.586;2023-03-14T03:22:43;3.00;;;1.15;;
53977;SDS011;39886;47.984;-1.586;2023-03-14T03:25:09;2.67;;;1.15;;
53977;SDS011;39886;47.984;-1.586;2023-03-14T03:27:36;1.77;;;0.90;;
53977;SDS011;39886;47.984;-1.586;2023-03-14T03:30:03;2.60;;;1.33;;
53977;SDS011;39886;47.984;-1.586;2023-03-14T03:32:30;3.40;;;1.50;;
53977;SDS011;39886;47.984;-1.586;2023-03-14T03:34:56;1.55;;;1.10;;
53977;SDS011;39886;47.984;-1.586;2023-03-14T03:37:22;2.75;;;1.13;;
53977;SDS011;39886;47.984;-1.586;2023-03-14T03:39:51;2.20;;;0.90;;
53977;SDS011;39886;47.984;-1.586;2023-03-14T03:42:17;3.28;;;1.10;;
53977;SDS011;39886;47.984;-1.586;2023-03-14T03:44:44;2.78;;;1.08;;
53977;SDS011;39886;47.984;-1.586;2023-03-14T03:47:10;3.03;;;1.10;;
53977;SDS011;39886;47.984;-1.586;2023-03-14T03:49:36;2.45;;;1.10;;
53977;SDS011;39886;47.984;-1.586;2023-03-14T03:52:02;3.45;;;1.23;;
53977;SDS011;39886;47.984;-1.586;2023-03-14T03:54:27;3.33;;;0.98;;
53977;SDS011;39886;47.984;-1.586;2023-03-14T03:56:54;1.85;;;0.93;;
53977;SDS011;39886;47.984;-1.586;2023-03-14T03:59:20;1.83;;;0.90;;
53977;SDS011;39886;47.984;-1.586;2023-03-14T04:01:46;1.92;;;1.10;;
53977;SDS011;39886;47.984;-1.586;2023-03-14T04:04:12;2.78;;;1.00;;
53977;SDS011;39886;47.984;-1.586;2023-03-14T04:06:39;2.17;;;0.95;;
53977;SDS011;39886;47.984;-1.586;2023-03-14T04:09:06;3.50;;;1.20;;
53977;SDS011;39886;47.984;-1.586;2023-03-14T04:11:41;2.92;;;1.08;;
53977;SDS011;39886;47.984;-1.586;2023-03-14T04:14:07;1.48;;;1.15;;
53977;SDS011;39886;47.984;-1.586;2023-03-14T04:16:33;4.00;;;1.05;;
53977;SDS011;39886;47.984;-1.586;2023-03-14T04:18:59;1.58;;;1.08;;
53977;SDS011;39886;47.984;-1.586;2023-03-14T04:21:26;3.22;;;1.10;;
53977;SDS011;39886;47.984;-1.586;2023-03-14T04:23:54;1.48;;;0.90;;
53977;SDS011;39886;47.984;-1.586;2023-03-14T04:26:20;2.65;;;1.15;;
53977;SDS011;39886;47.984;-1.586;2023-03-14T04:28:46;1.98;;;1.00;;
53977;SDS011;39886;47.984;-1.586;2023-03-14T04:31:16;2.58;;;1.13;;
53977;SDS011;39886;47.984;-1.586;2023-03-14T04:33:44;2.88;;;1.00;;
53977;SDS011;39886;47.984;-1.586;2023-03-14T04:36:10;2.92;;;1.30;;
53977;SDS011;39886;47.984;-1.586;2023-03-14T04:38:36;2.10;;;1.00;;
53977;SDS011;39886;47.984;-1.586;2023-03-14T04:41:02;1.15;;;0.95;;
53977;SDS011;39886;47.984;-1.586;2023-03-14T04:43:28;1.95;;;0.82;;
53977;SDS011;39886;47.984;-1.586;2023-03-14T04:45:55;2.42;;;1.20;;
53977;SDS011;39886;47.984;-1.586;2023-03-14T04:48:22;2.38;;;1.20;;
53977;SDS011;39886;47.984;-1.586;2023-03-14T04:50:49;1.58;;;0.93;;
53977;SDS011;39886;47.984;-1.586;2023-03-14T04:53:16;1.30;;;0.80;;
53977;SDS011;39886;47.984;-1.586;2023-03-14T04:55:47;2.38;;;0.90;;
53977;SDS011;39886;47.984;-1.586;2023-03-14T04:58:13;1.45;;;1.00;;
53977;SDS011;39886;47.984;-1.586;2023-03-14T05:00:39;1.25;;;0.90;;
53977;SDS011;39886;47.984;-1.586;2023-03-14T05:03:05;2.15;;;1.15;;
53977;SDS011;39886;47.984;-1.586;2023-03-14T05:05:31;2.20;;;1.10;;
53977;SDS011;39886;47.984;-1.586;2023-03-14T05:07:57;1.30;;;0.88;;
53977;SDS011;39886;47.984;-1.586;2023-03-14T05:10:22;1.83;;;0.88;;
53977;SDS011;39886;47.984;-1.586;2023-03-14T05:12:48;2.08;;;1.00;;
53977;SDS011;39886;47.984;-1.586;2023-03-14T05:15:14;1.80;;;1.00;;
53977;SDS011;39886;47.984;-1.586;2023-03-14T05:17:39;3.30;;;1.17;;
53977;SDS011;39886;47.984;-1.586;2023-03-14T05:20:05;2.10;;;1.00;;
53977;SDS011;39886;47.984;-1.586;2023-03-14T05:22:35;3.30;;;1.17;;
53977;SDS011;39886;47.984;-1.586;2023-03-14T05:25:00;1.77;;;1.10;;
53977;SDS011;39886;47.984;-1.586;2023-03-14T05:27:26;1.77;;;0.93;;
53977;SDS011;39886;47.984;-1.586;2023-03-14T05:29:52;2.50;;;1.10;;
53977;SDS011;39886;47.984;-1.586;2023-03-14T05:32:18;1.80;;;0.90;;
53977;SDS011;39886;47.984;-1.586;2023-03-14T05:34:43;2.28;;;0.90;;
53977;SDS011;39886;47.984;-1.586;2023-03-14T05:37:09;2.92;;;0.90;;
53977;SDS011;39886;47.984;-1.586;2023-03-14T05:39:35;2.90;;;1.33;;
53977;SDS011;39886;47.984;-1.586;2023-03-14T05:42:01;2.17;;;1.00;;
53977;SDS011;39886;47.984;-1.586;2023-03-14T05:44:26;1.67;;;0.88;;
53977;SDS011;39886;47.984;-1.586;2023-03-14T05:46:52;1.38;;;0.93;;
53977;SDS011;39886;47.984;-1.586;2023-03-14T05:49:18;1.63;;;0.82;;
53977;SDS011;39886;47.984;-1.586;2023-03-14T05:51:44;1.90;;;1.00;;
53977;SDS011;39886;47.984;-1.586;2023-03-14T05:54:09;3.53;;;1.20;;
53977;SDS011;39886;47.984;-1.586;2023-03-14T05:56:35;2.05;;;0.95;;
53977;SDS011;39886;47.984;-1.586;2023-03-14T05:59:01;1.95;;;0.95;;
53977;SDS011;39886;47.984;-1.586;2023-03-14T06:01:28;1.52;;;0.95;;
53977;SDS011;39886;47.984;-1.586;2023-03-14T06:03:55;3.08;;;1.10;;
53977;SDS011;39886;47.984;-1.586;2023-03-14T06:06:20;2.50;;;1.23;;
53977;SDS011;39886;47.984;-1.586;2023-03-14T06:08:46;1.77;;;1.00;;
53977;SDS011;39886;47.984;-1.586;2023-03-14T06:11:12;1.45;;;1.00;;
53977;SDS011;39886;47.984;-1.586;2023-03-14T06:13:38;1.05;;;0.80;;
53977;SDS011;39886;47.984;-1.586;2023-03-14T06:16:04;2.50;;;0.90;;
53977;SDS011;39886;47.984;-1.586;2023-03-14T06:18:30;3.78;;;1.20;;
53977;SDS011;39886;47.984;-1.586;2023-03-14T06:20:56;2.50;;;0.93;;
53977;SDS011;39886;47.984;-1.586;2023-03-14T06:23:22;1.65;;;0.95;;
53977;SDS011;39886;47.984;-1.586;2023-03-14T06:25:48;2.10;;;1.08;;
53977;SDS011;39886;47.984;-1.586;2023-03-14T06:28:14;1.75;;;1.23;;
53977;SDS011;39886;47.984;-1.586;2023-03-14T06:30:39;1.33;;;1.00;;
53977;SDS011;39886;47.984;-1.586;2023-03-14T06:33:05;3.97;;;1.30;;
53977;SDS011;39886;47.984;-1.586;2023-03-14T06:35:31;1.88;;;0.90;;
53977;SDS011;39886;47.984;-1.586;2023-03-14T06:37:57;2.60;;;1.25;;
53977;SDS011;39886;47.984;-1.586;2023-03-14T06:40:22;2.50;;;0.90;;
53977;SDS011;39886;47.984;-1.586;2023-03-14T06:42:48;1.58;;;1.00;;
53977;SDS011;39886;47.984;-1.586;2023-03-14T06:45:14;2.10;;;1.02;;
53977;SDS011;39886;47.984;-1.586;2023-03-14T06:47:40;3.13;;;1.00;;
53977;SDS011;39886;47.984;-1.586;2023-03-14T06:50:06;2.92;;;1.00;;
53977;SDS011;39886;47.984;-1.586;2023-03-14T06:52:34;2.40;;;1.20;;
53977;SDS011;39886;47.984;-1.586;2023-03-14T06:55:00;1.33;;;0.73;;
53977;SDS011;39886;47.984;-1.586;2023-03-14T06:57:26;1.10;;;1.00;;
53977;SDS011;39886;47.984;-1.586;2023-03-14T06:59:51;2.50;;;1.00;;
53977;SDS011;39886;47.984;-1.586;2023-03-14T07:02:17;1.13;;;0.88;;
53977;SDS011;39886;47.984;-1.586;2023-03-14T07:04:43;1.83;;;1.02;;
53977;SDS011;39886;47.984;-1.586;2023-03-14T07:07:09;2.45;;;1.00;;
53977;SDS011;39886;47.984;-1.586;2023-03-14T07:09:35;2.17;;;0.73;;
53977;SDS011;39886;47.984;-1.586;2023-03-14T07:12:01;1.92;;;1.00;;
53977;SDS011;39886;47.984;-1.586;2023-03-14T07:14:29;3.95;;;1.23;;
53977;SDS011;39886;47.984;-1.586;2023-03-14T07:16:55;3.15;;;0.95;;
53977;SDS011;39886;47.984;-1.586;2023-03-14T07:19:21;2.45;;;0.90;;
53977;SDS011;39886;47.984;-1.586;2023-03-14T07:21:47;2.65;;;1.30;;
53977;SDS011;39886;47.984;-1.586;2023-03-14T07:24:12;1.73;;;0.95;;
53977;SDS011;39886;47.984;-1.586;2023-03-14T07:26:38;1.70;;;1.00;;
53977;SDS011;39886;47.984;-1.586;2023-03-14T07:29:04;2.03;;;0.93;;
53977;SDS011;39886;47.984;-1.586;2023-03-14T07:31:30;1.40;;;0.93;;
53977;SDS011;39886;47.984;-1.586;2023-03-14T07:33:56;1.92;;;1.05;;
53977;SDS011;39886;47.984;-1.586;2023-03-14T07:36:22;2.92;;;1.13;;
53977;SDS011;39886;47.984;-1.586;2023-03-14T07:38:48;5.03;;;1.73;;
53977;SDS011;39886;47.984;-1.586;2023-03-14T07:41:14;1.88;;;1.10;;
53977;SDS011;39886;47.984;-1.586;2023-03-14T07:43:40;2.47;;;0.80;;
53977;SDS011;39886;47.984;-1.586;2023-03-14T07:46:06;2.00;;;1.00;;
53977;SDS011;39886;47.984;-1.586;2023-03-14T07:48:32;1.83;;;0.73;;
53977;SDS011;39886;47.984;-1.586;2023-03-14T07:50:58;1.88;;;0.88;;
53977;SDS011;39886;47.984;-1.586;2023-03-14T07:53:24;3.13;;;1.20;;
53977;SDS011;39886;47.984;-1.586;2023-03-14T07:55:51;1.95;;;1.00;;
53977;SDS011;39886;47.984;-1.586;2023-03-14T07:58:17;2.08;;;0.95;;
53977;SDS011;39886;47.984;-1.586;2023-03-14T08:00:43;1.70;;;0.98;;
53977;SDS011;39886;47.984;-1.586;2023-03-14T08:03:09;2.13;;;1.00;;
53977;SDS011;39886;47.984;-1.586;2023-03-14T08:05:35;2.55;;;1.00;;
53977;SDS011;39886;47.984;-1.586;2023-03-14T08:08:02;3.38;;;1.02;;
53977;SDS011;39886;47.984;-1.586;2023-03-14T08:10:29;5.97;;;1.20;;
53977;SDS011;39886;47.984;-1.586;2023-03-14T08:12:55;4.00;;;1.00;;
53977;SDS011;39886;47.984;-1.586;2023-03-14T08:15:22;4.13;;;1.08;;
53977;SDS011;39886;47.984;-1.586;2023-03-14T08:17:48;2.45;;;1.10;;
53977;SDS011;39886;47.984;-1.586;2023-03-14T08:20:19;4.10;;;1.20;;
53977;SDS011;39886;47.984;-1.586;2023-03-14T08:22:46;2.83;;;1.00;;
53977;SDS011;39886;47.984;-1.586;2023-03-14T08:25:12;2.13;;;1.13;;
53977;SDS011;39886;47.984;-1.586;2023-03-14T08:27:38;2.63;;;1.20;;
53977;SDS011;39886;47.984;-1.586;2023-03-14T08:30:06;2.88;;;1.00;;
53977;SDS011;39886;47.984;-1.586;2023-03-14T08:32:39;3.17;;;1.40;;
53977;SDS011;39886;47.984;-1.586;2023-03-14T08:35:05;5.05;;;1.60;;
53977;SDS011;39886;47.984;-1.586;2023-03-14T08:37:32;3.08;;;1.10;;
53977;SDS011;39886;47.984;-1.586;2023-03-14T08:39:58;3.55;;;1.30;;
53977;SDS011;39886;47.984;-1.586;2023-03-14T08:42:24;2.33;;;1.20;;
53977;SDS011;39886;47.984;-1.586;2023-03-14T08:44:50;3.33;;;1.30;;
53977;SDS011;39886;47.984;-1.586;2023-03-14T08:47:17;2.80;;;1.02;;
53977;SDS011;39886;47.984;-1.586;2023-03-14T08:49:43;3.83;;;1.27;;
53977;SDS011;39886;47.984;-1.586;2023-03-14T08:52:09;2.40;;;1.13;;
53977;SDS011;39886;47.984;-1.586;2023-03-14T08:54:34;3.67;;;1.30;;
53977;SDS011;39886;47.984;-1.586;2023-03-14T08:57:00;3.83;;;1.13;;
53977;SDS011;39886;47.984;-1.586;2023-03-14T08:59:26;3.58;;;1.10;;
53977;SDS011;39886;47.984;-1.586;2023-03-14T09:01:52;9.50;;;1.50;;
53977;SDS011;39886;47.984;-1.586;2023-03-14T09:04:19;6.40;;;1.58;;
53977;SDS011;39886;47.984;-1.586;2023-03-14T09:06:45;3.72;;;1.40;;
53977;SDS011;39886;47.984;-1.586;2023-03-14T09:09:11;3.15;;;1.20;;
53977;SDS011;39886;47.984;-1.586;2023-03-14T09:11:38;5.28;;;1.30;;
53977;SDS011;39886;47.984;-1.586;2023-03-14T09:14:05;4.95;;;1.48;;
53977;SDS011;39886;47.984;-1.586;2023-03-14T09:16:31;5.35;;;1.63;;
53977;SDS011;39886;47.984;-1.586;2023-03-14T09:18:58;4.65;;;1.25;;
53977;SDS011;39886;47.984;-1.586;2023-03-14T09:21:25;3.78;;;1.60;;
53977;SDS011;39886;47.984;-1.586;2023-03-14T09:23:52;5.82;;;1.77;;
53977;SDS011;39886;47.984;-1.586;2023-03-14T09:26:18;5.53;;;1.40;;
53977;SDS011;39886;47.984;-1.586;2023-03-14T09:28:44;3.05;;;1.25;;
53977;SDS011;39886;47.984;-1.586;2023-03-14T09:31:10;12.32;;;1.65;;
53977;SDS011;39886;47.984;-1.586;2023-03-14T09:33:37;3.78;;;1.27;;
53977;SDS011;39886;47.984;-1.586;2023-03-14T09:36:03;16.98;;;1.63;;
53977;SDS011;39886;47.984;-1.586;2023-03-14T09:38:29;3.92;;;1.40;;
53977;SDS011;39886;47.984;-1.586;2023-03-14T09:40:58;5.40;;;1.60;;
53977;SDS011;39886;47.984;-1.586;2023-03-14T09:43:26;4.72;;;1.27;;
53977;SDS011;39886;47.984;-1.586;2023-03-14T09:45:55;4.15;;;1.40;;
53977;SDS011;39886;47.984;-1.586;2023-03-14T09:48:27;4.38;;;1.88;;
53977;SDS011;39886;47.984;-1.586;2023-03-14T09:50:56;5.18;;;1.77;;
53977;SDS011;39886;47.984;-1.586;2023-03-14T09:53:28;4.28;;;1.73;;
53977;SDS011;39886;47.984;-1.586;2023-03-14T09:56:13;3.88;;;1.45;;
53977;SDS011;39886;47.984;-1.586;2023-03-14T09:58:48;6.00;;;1.30;;
53977;SDS011;39886;47.984;-1.586;2023-03-14T10:01:20;3.55;;;1.60;;
53977;SDS011;39886;47.984;-1.586;2023-03-14T10:03:50;4.70;;;1.35;;
53977;SDS011;39886;47.984;-1.586;2023-03-14T10:06:26;2.35;;;1.15;;
53977;SDS011;39886;47.984;-1.586;2023-03-14T10:08:53;3.03;;;1.13;;
53977;SDS011;39886;47.984;-1.586;2023-03-14T10:11:20;2.67;;;1.20;;
53977;SDS011;39886;47.984;-1.586;2023-03-14T10:13:47;4.93;;;1.23;;
53977;SDS011;39886;47.984;-1.586;2023-03-14T10:16:30;3.65;;;1.02;;
53977;SDS011;39886;47.984;-1.586;2023-03-14T10:19:02;4.72;;;1.30;;
53977;SDS011;39886;47.984;-1.586;2023-03-14T10:21:30;1.83;;;1.10;;
53977;SDS011;39886;47.984;-1.586;2023-03-14T10:24:16;3.53;;;1.30;;
53977;SDS011;39886;47.984;-1.586;2023-03-14T10:26:55;5.10;;;1.98;;
53977;SDS011;39886;47.984;-1.586;2023-03-14T10:29:28;3.67;;;1.63;;
53977;SDS011;39886;47.984;-1.586;2023-03-14T10:34:30;3.40;;;1.40;;
53977;SDS011;39886;47.984;-1.586;2023-03-14T10:36:59;3.88;;;1.50;;
53977;SDS011;39886;47.984;-1.586;2023-03-14T10:39:42;7.68;;;1.48;;
53977;SDS011;39886;47.984;-1.586;2023-03-14T10:42:25;3.22;;;1.45;;
53977;SDS011;39886;47.984;-1.586;2023-03-14T10:45:04;12.82;;;1.85;;
53977;SDS011;39886;47.984;-1.586;2023-03-14T10:47:47;5.72;;;1.58;;
53977;SDS011;39886;47.984;-1.586;2023-03-14T10:50:30;3.63;;;1.58;;
53977;SDS011;39886;47.984;-1.586;2023-03-14T10:52:57;4.05;;;1.60;;
53977;SDS011;39886;47.984;-1.586;2023-03-14T10:55:38;4.00;;;1.80;;
53977;SDS011;39886;47.984;-1.586;2023-03-14T11:00:45;4.20;;;1.40;;
53977;SDS011;39886;47.984;-1.586;2023-03-14T11:03:17;4.95;;;1.35;;
53977;SDS011;39886;47.984;-1.586;2023-03-14T11:08:12;6.53;;;1.70;;
53977;SDS011;39886;47.984;-1.586;2023-03-14T11:11:01;11.50;;;1.98;;
53977;SDS011;39886;47.984;-1.586;2023-03-14T11:13:56;5.03;;;1.23;;
53977;SDS011;39886;47.984;-1.586;2023-03-14T11:16:30;5.88;;;1.70;;
53977;SDS011;39886;47.984;-1.586;2023-03-14T11:19:28;5.95;;;1.60;;
53977;SDS011;39886;47.984;-1.586;2023-03-14T11:25:16;5.28;;;1.45;;
53977;SDS011;39886;47.984;-1.586;2023-03-14T11:27:59;2.95;;;1.27;;
53977;SDS011;39886;47.984;-1.586;2023-03-14T11:30:50;2.47;;;1.30;;
53977;SDS011;39886;47.984;-1.586;2023-03-14T11:33:28;4.15;;;1.35;;
53977;SDS011;39886;47.984;-1.586;2023-03-14T11:36:12;3.58;;;1.40;;
53977;SDS011;39886;47.984;-1.586;2023-03-14T11:38:50;2.92;;;1.30;;
53977;SDS011;39886;47.984;-1.586;2023-03-14T11:41:25;4.97;;;1.55;;
53977;SDS011;39886;47.984;-1.586;2023-03-14T11:44:04;5.95;;;1.73;;
53977;SDS011;39886;47.984;-1.586;2023-03-14T11:46:50;11.13;;;2.78;;
53977;SDS011;39886;47.984;-1.586;2023-03-14T11:52:09;3.13;;;1.48;;
53977;SDS011;39886;47.984;-1.586;2023-03-14T11:57:21;3.85;;;1.40;;
53977;SDS011;39886;47.984;-1.586;2023-03-14T12:02:42;2.40;;;1.48;;
53977;SDS011;39886;47.984;-1.586;2023-03-14T12:10:53;4.78;;;1.30;;
53977;SDS011;39886;47.984;-1.586;2023-03-14T12:13:22;4.22;;;1.45;;
53977;SDS011;39886;47.984;-1.586;2023-03-14T12:15:59;5.45;;;1.42;;
53977;SDS011;39886;47.984;-1.586;2023-03-14T12:18:33;4.10;;;1.40;;
53977;SDS011;39886;47.984;-1.586;2023-03-14T12:21:04;4.25;;;1.40;;
53977;SDS011;39886;47.984;-1.586;2023-03-14T12:23:43;3.70;;;1.30;;
53977;SDS011;39886;47.984;-1.586;2023-03-14T12:26:24;4.07;;;1.40;;
53977;SDS011;39886;47.984;-1.586;2023-03-14T12:34:39;1.60;;;1.02;;
53977;SDS011;39886;47.984;-1.586;2023-03-14T12:42:08;3.92;;;1.50;;
53977;SDS011;39886;47.984;-1.586;2023-03-14T12:44:48;7.20;;;1.30;;
53977;SDS011;39886;47.984;-1.586;2023-03-14T12:50:05;3.83;;;1.30;;
53977;SDS011;39886;47.984;-1.586;2023-03-14T12:58:37;3.17;;;1.20;;
53977;SDS011;39886;47.984;-1.586;2023-03-14T13:01:14;5.40;;;1.40;;
53977;SDS011;39886;47.984;-1.586;2023-03-14T13:03:53;4.40;;;1.20;;
53977;SDS011;39886;47.984;-1.586;2023-03-14T13:12:01;6.72;;;1.30;;
53977;SDS011;39886;47.984;-1.586;2023-03-14T13:14:43;4.55;;;1.30;;
53977;SDS011;39886;47.984;-1.586;2023-03-14T13:17:12;3.90;;;1.33;;
53977;SDS011;39886;47.984;-1.586;2023-03-14T13:19:39;6.05;;;1.15;;
53977;SDS011;39886;47.984;-1.586;2023-03-14T13:22:06;3.92;;;1.20;;
53977;SDS011;39886;47.984;-1.586;2023-03-14T13:24:45;7.32;;;1.80;;
53977;SDS011;39886;47.984;-1.586;2023-03-14T13:27:16;4.32;;;1.30;;
53977;SDS011;39886;47.984;-1.586;2023-03-14T13:29:45;6.18;;;1.30;;
53977;SDS011;39886;47.984;-1.586;2023-03-14T13:32:16;3.38;;;1.30;;
53977;SDS011;39886;47.984;-1.586;2023-03-14T13:34:45;6.22;;;1.38;;
53977;SDS011;39886;47.984;-1.586;2023-03-14T13:37:22;2.63;;;1.30;;
53977;SDS011;39886;47.984;-1.586;2023-03-14T13:39:50;4.47;;;1.35;;
53977;SDS011;39886;47.984;-1.586;2023-03-14T13:42:17;3.90;;;1.35;;
53977;SDS011;39886;47.984;-1.586;2023-03-14T13:44:43;4.85;;;1.67;;
53977;SDS011;39886;47.984;-1.586;2023-03-14T13:47:12;4.47;;;1.48;;
53977;SDS011;39886;47.984;-1.586;2023-03-14T13:49:41;3.00;;;1.30;;
53977;SDS011;39886;47.984;-1.586;2023-03-14T13:55:13;4.32;;;1.58;;
53977;SDS011;39886;47.984;-1.586;2023-03-14T14:00:18;4.82;;;1.30;;
53977;SDS011;39886;47.984;-1.586;2023-03-14T14:02:52;3.85;;;1.40;;
53977;SDS011;39886;47.984;-1.586;2023-03-14T14:05:19;3.50;;;1.60;;
53977;SDS011;39886;47.984;-1.586;2023-03-14T14:07:45;3.47;;;1.42;;
53977;SDS011;39886;47.984;-1.586;2023-03-14T14:10:13;4.85;;;1.67;;
53977;SDS011;39886;47.984;-1.586;2023-03-14T14:12:41;4.80;;;1.40;;
53977;SDS011;39886;47.984;-1.586;2023-03-14T14:15:22;3.78;;;1.45;;
53977;SDS011;39886;47.984;-1.586;2023-03-14T14:17:52;4.03;;;1.63;;
53977;SDS011;39886;47.984;-1.586;2023-03-14T14:20:34;3.47;;;1.55;;
53977;SDS011;39886;47.984;-1.586;2023-03-14T14:23:13;2.85;;;1.17;;
53977;SDS011;39886;47.984;-1.586;2023-03-14T14:25:45;4.30;;;1.58;;
53977;SDS011;39886;47.984;-1.586;2023-03-14T14:28:18;6.25;;;1.60;;
53977;SDS011;39886;47.984;-1.586;2023-03-14T14:31:02;4.10;;;1.80;;
53977;SDS011;39886;47.984;-1.586;2023-03-14T14:33:28;6.53;;;1.90;;
53977;SDS011;39886;47.984;-1.586;2023-03-14T14:35:55;3.70;;;1.48;;
53977;SDS011;39886;47.984;-1.586;2023-03-14T14:38:23;3.97;;;1.55;;
53977;SDS011;39886;47.984;-1.586;2023-03-14T14:40:50;5.80;;;1.60;;
53977;SDS011;39886;47.984;-1.586;2023-03-14T14:43:22;6.38;;;1.90;;
53977;SDS011;39886;47.984;-1.586;2023-03-14T14:45:52;3.95;;;1.48;;
53977;SDS011;39886;47.984;-1.586;2023-03-14T14:48:23;3.08;;;1.42;;
53977;SDS011;39886;47.984;-1.586;2023-03-14T14:50:55;2.28;;;1.30;;
53977;SDS011;39886;47.984;-1.586;2023-03-14T14:56:13;6.53;;;1.88;;
53977;SDS011;39886;47.984;-1.586;2023-03-14T14:58:46;6.38;;;2.08;;
53977;SDS011;39886;47.984;-1.586;2023-03-14T15:01:16;6.32;;;1.90;;
53977;SDS011;39886;47.984;-1.586;2023-03-14T15:03:45;3.50;;;1.30;;
53977;SDS011;39886;47.984;-1.586;2023-03-14T15:06:14;2.88;;;1.45;;
53977;SDS011;39886;47.984;-1.586;2023-03-14T15:08:42;6.25;;;1.67;;
53977;SDS011;39886;47.984;-1.586;2023-03-14T15:11:13;7.13;;;2.35;;
53977;SDS011;39886;47.984;-1.586;2023-03-14T15:13:43;2.50;;;1.38;;
53977;SDS011;39886;47.984;-1.586;2023-03-14T15:16:10;7.00;;;2.00;;
53977;SDS011;39886;47.984;-1.586;2023-03-14T15:18:40;7.18;;;1.80;;
53977;SDS011;39886;47.984;-1.586;2023-03-14T15:21:08;3.83;;;1.40;;
53977;SDS011;39886;47.984;-1.586;2023-03-14T15:23:35;4.38;;;1.58;;
53977;SDS011;39886;47.984;-1.586;2023-03-14T15:26:01;3.80;;;1.38;;
53977;SDS011;39886;47.984;-1.586;2023-03-14T15:28:28;3.30;;;1.40;;
53977;SDS011;39886;47.984;-1.586;2023-03-14T15:30:58;5.97;;;1.60;;
53977;SDS011;39886;47.984;-1.586;2023-03-14T15:33:25;6.03;;;1.58;;
53977;SDS011;39886;47.984;-1.586;2023-03-14T15:35:51;3.63;;;1.50;;
53977;SDS011;39886;47.984;-1.586;2023-03-14T15:38:18;5.82;;;1.45;;
53977;SDS011;39886;47.984;-1.586;2023-03-14T15:40:48;4.47;;;1.85;;
53977;SDS011;39886;47.984;-1.586;2023-03-14T15:43:15;7.00;;;1.90;;
53977;SDS011;39886;47.984;-1.586;2023-03-14T15:45:42;4.70;;;1.75;;
53977;SDS011;39886;47.984;-1.586;2023-03-14T15:48:11;5.15;;;1.48;;
53977;SDS011;39886;47.984;-1.586;2023-03-14T15:50:42;4.55;;;1.50;;
53977;SDS011;39886;47.984;-1.586;2023-03-14T15:53:08;4.03;;;1.77;;
53977;SDS011;39886;47.984;-1.586;2023-03-14T15:55:34;7.00;;;1.60;;